KLM1225 EHAM-ESSA
Flight info
| Callsign | KLM1225 |
|---|---|
| Flight time | 1h 33m |
| Altitude | 37000 |
| Route | ANDIK N873 HUNQI DCT DOSUR DCT BEVUM DCT MIKNA N851 PELUP Z226 NILUG |
| Aircraft | B738/M-SDE2E3FGHIRWXY/LB1 |
Departure
| Time | 2026-05-05 15:38 |
|---|---|
| Airport | Amsterdam Airport Schiphol (EHAM) |
Arrival
| Time | 2026-05-05 17:12 |
|---|---|
| Airport | Stockholm-Arlanda Airport (ESSA) |
| Time | Latitude | Longitude | Altitude | Speed | Heading |
|---|---|---|---|---|---|
| 2026-05-05 15:06 | 52.30892 | 4.77366 | -3 ft | 0 kts | 3° |
| 2026-05-05 15:25 | 52.30884 | 4.77365 | -3 ft | 2 kts | 2° |
| 2026-05-05 15:25 | 52.30867 | 4.77364 | -3 ft | 2 kts | 6° |
| 2026-05-05 15:25 | 52.30852 | 4.77356 | -3 ft | 2 kts | 40° |
| 2026-05-05 15:25 | 52.30842 | 4.77334 | -3 ft | 2 kts | 75° |
| 2026-05-05 15:26 | 52.30841 | 4.77307 | -3 ft | 2 kts | 94° |
| 2026-05-05 15:26 | 52.30841 | 4.77292 | -3 ft | 0 kts | 94° |
| 2026-05-05 15:29 | 52.30841 | 4.77295 | -3 ft | 1 kts | 94° |
| 2026-05-05 15:29 | 52.30839 | 4.77336 | -3 ft | 6 kts | 93° |
| 2026-05-05 15:29 | 52.30836 | 4.77430 | -3 ft | 10 kts | 93° |
| 2026-05-05 15:29 | 52.30832 | 4.77537 | -3 ft | 9 kts | 92° |
| 2026-05-05 15:30 | 52.30872 | 4.77607 | -3 ft | 9 kts | 12° |
| 2026-05-05 15:30 | 52.30934 | 4.77613 | -3 ft | 9 kts | 2° |
| 2026-05-05 15:30 | 52.30995 | 4.77619 | -3 ft | 9 kts | 4° |
| 2026-05-05 15:30 | 52.31064 | 4.77626 | -3 ft | 13 kts | 3° |
| 2026-05-05 15:31 | 52.31160 | 4.77635 | -3 ft | 14 kts | 3° |
| 2026-05-05 15:31 | 52.31254 | 4.77644 | -3 ft | 13 kts | 3° |
| 2026-05-05 15:31 | 52.31345 | 4.77651 | -3 ft | 13 kts | 2° |
| 2026-05-05 15:31 | 52.31432 | 4.77651 | -3 ft | 12 kts | 342° |
| 2026-05-05 15:32 | 52.31503 | 4.77575 | -3 ft | 12 kts | 317° |
| 2026-05-05 15:32 | 52.31559 | 4.77473 | -3 ft | 12 kts | 302° |
| 2026-05-05 15:32 | 52.31578 | 4.77345 | -4 ft | 12 kts | 266° |
| 2026-05-05 15:32 | 52.31575 | 4.77216 | -4 ft | 11 kts | 267° |
| 2026-05-05 15:33 | 52.31571 | 4.77090 | -4 ft | 11 kts | 267° |
| 2026-05-05 15:33 | 52.31565 | 4.76969 | -3 ft | 11 kts | 267° |
| 2026-05-05 15:33 | 52.31560 | 4.76804 | -3 ft | 17 kts | 267° |
| 2026-05-05 15:33 | 52.31553 | 4.76606 | -3 ft | 17 kts | 266° |
| 2026-05-05 15:34 | 52.31547 | 4.76414 | -3 ft | 17 kts | 266° |
| 2026-05-05 15:34 | 52.31541 | 4.76229 | -3 ft | 16 kts | 266° |
| 2026-05-05 15:34 | 52.31535 | 4.76051 | -3 ft | 15 kts | 266° |
| 2026-05-05 15:34 | 52.31528 | 4.75883 | -3 ft | 15 kts | 266° |
| 2026-05-05 15:35 | 52.31523 | 4.75719 | -3 ft | 14 kts | 266° |
| 2026-05-05 15:35 | 52.31517 | 4.75562 | -3 ft | 13 kts | 268° |
| 2026-05-05 15:35 | 52.31512 | 4.75413 | -4 ft | 13 kts | 266° |
| 2026-05-05 15:35 | 52.31507 | 4.75269 | -4 ft | 13 kts | 267° |
| 2026-05-05 15:36 | 52.31502 | 4.75127 | -4 ft | 12 kts | 266° |
| 2026-05-05 15:36 | 52.31497 | 4.74991 | -3 ft | 12 kts | 266° |
| 2026-05-05 15:36 | 52.31493 | 4.74856 | -3 ft | 12 kts | 266° |
| 2026-05-05 15:36 | 52.31488 | 4.74726 | -3 ft | 11 kts | 266° |
| 2026-05-05 15:37 | 52.31540 | 4.74662 | -3 ft | 11 kts | 358° |
| 2026-05-05 15:37 | 52.31613 | 4.74658 | -1 ft | 10 kts | 358° |
| 2026-05-05 15:37 | 52.31666 | 4.74706 | -1 ft | 10 kts | 75° |
| 2026-05-05 15:37 | 52.31671 | 4.74821 | -3 ft | 11 kts | 86° |
| 2026-05-05 15:38 | 52.31678 | 4.75023 | -7 ft | 39 kts | 86° |
| 2026-05-05 15:38 | 52.31707 | 4.75869 | -3 ft | 108 kts | 86° |
| 2026-05-05 15:38 | 52.31770 | 4.77439 | -1 ft | 166 kts | 86° |
| 2026-05-05 15:38 | 52.31825 | 4.79359 | 634 ft | 167 kts | 83° |
| 2026-05-05 15:39 | 52.31882 | 4.81186 | 1702 ft | 154 kts | 81° |
| 2026-05-05 15:39 | 52.31989 | 4.82967 | 2354 ft | 166 kts | 79° |
| 2026-05-05 15:39 | 52.32122 | 4.85035 | 2655 ft | 196 kts | 81° |
| 2026-05-05 15:39 | 52.32261 | 4.87403 | 2883 ft | 222 kts | 82° |
| 2026-05-05 15:40 | 52.32536 | 4.90004 | 3227 ft | 240 kts | 65° |
| 2026-05-05 15:40 | 52.33376 | 4.92355 | 4005 ft | 245 kts | 54° |
| 2026-05-05 15:40 | 52.34388 | 4.94662 | 4768 ft | 253 kts | 53° |
| 2026-05-05 15:40 | 52.35451 | 4.97024 | 5498 ft | 262 kts | 53° |
| 2026-05-05 15:41 | 52.36549 | 4.99478 | 6179 ft | 272 kts | 53° |
| 2026-05-05 15:41 | 52.37674 | 5.02021 | 6893 ft | 278 kts | 54° |
| 2026-05-05 15:41 | 52.38805 | 5.04598 | 7733 ft | 279 kts | 54° |
| 2026-05-05 15:41 | 52.39928 | 5.07169 | 8498 ft | 284 kts | 54° |
| 2026-05-05 15:42 | 52.41087 | 5.09833 | 9291 ft | 287 kts | 54° |
| 2026-05-05 15:42 | 52.42353 | 5.12386 | 10034 ft | 291 kts | 39° |
| 2026-05-05 15:42 | 52.44137 | 5.14015 | 10374 ft | 309 kts | 18° |
| 2026-05-05 15:42 | 52.46284 | 5.15022 | 10610 ft | 330 kts | 14° |
| 2026-05-05 15:43 | 52.48559 | 5.15978 | 11162 ft | 339 kts | 13° |
| 2026-05-05 15:43 | 52.50827 | 5.16924 | 11887 ft | 342 kts | 13° |
| 2026-05-05 15:43 | 52.53144 | 5.17906 | 12640 ft | 345 kts | 14° |
| 2026-05-05 15:43 | 52.55478 | 5.18915 | 13368 ft | 349 kts | 14° |
| 2026-05-05 15:44 | 52.57839 | 5.19950 | 14047 ft | 352 kts | 14° |
| 2026-05-05 15:44 | 52.60231 | 5.21006 | 14665 ft | 357 kts | 14° |
| 2026-05-05 15:44 | 52.61829 | 5.21715 | 15063 ft | 360 kts | 14° |
| 2026-05-05 15:44 | 52.64265 | 5.22799 | 15673 ft | 365 kts | 14° |
| 2026-05-05 15:45 | 52.67546 | 5.24259 | 16483 ft | 370 kts | 14° |
| 2026-05-05 15:45 | 52.69200 | 5.24997 | 16889 ft | 373 kts | 14° |
| 2026-05-05 15:45 | 52.71728 | 5.26134 | 17448 ft | 379 kts | 15° |
| 2026-05-05 15:45 | 52.74123 | 5.28024 | 18031 ft | 385 kts | 36° |
| 2026-05-05 15:46 | 52.76031 | 5.31151 | 18638 ft | 387 kts | 51° |
| 2026-05-05 15:46 | 52.77717 | 5.34671 | 19049 ft | 395 kts | 52° |
| 2026-05-05 15:46 | 52.79384 | 5.38242 | 19579 ft | 397 kts | 52° |
| 2026-05-05 15:46 | 52.81066 | 5.41876 | 20180 ft | 399 kts | 53° |
| 2026-05-05 15:47 | 52.82765 | 5.45546 | 20666 ft | 403 kts | 52° |
| 2026-05-05 15:47 | 52.84485 | 5.49251 | 21170 ft | 407 kts | 52° |
| 2026-05-05 15:47 | 52.86222 | 5.52984 | 21672 ft | 410 kts | 52° |
| 2026-05-05 15:47 | 52.87974 | 5.56743 | 22202 ft | 413 kts | 52° |
| 2026-05-05 15:48 | 52.89735 | 5.60525 | 22709 ft | 416 kts | 52° |
| 2026-05-05 15:48 | 52.91493 | 5.64302 | 23167 ft | 420 kts | 52° |
| 2026-05-05 15:48 | 52.93288 | 5.68163 | 23619 ft | 423 kts | 52° |
| 2026-05-05 15:48 | 52.95092 | 5.72049 | 24027 ft | 426 kts | 52° |
| 2026-05-05 15:49 | 52.96910 | 5.75971 | 24424 ft | 429 kts | 52° |
| 2026-05-05 15:49 | 52.98724 | 5.79891 | 24801 ft | 433 kts | 53° |
| 2026-05-05 15:49 | 53.00574 | 5.83897 | 25165 ft | 436 kts | 53° |
| 2026-05-05 15:49 | 53.02404 | 5.87866 | 25529 ft | 439 kts | 53° |
| 2026-05-05 15:50 | 53.04270 | 5.91919 | 25893 ft | 442 kts | 53° |
| 2026-05-05 15:50 | 53.06152 | 5.96013 | 26240 ft | 445 kts | 53° |
| 2026-05-05 15:50 | 53.08039 | 6.00123 | 26593 ft | 448 kts | 53° |
| 2026-05-05 15:50 | 53.09919 | 6.04225 | 26936 ft | 451 kts | 53° |
| 2026-05-05 15:51 | 53.11842 | 6.08422 | 27273 ft | 454 kts | 53° |
| 2026-05-05 15:51 | 53.13766 | 6.12616 | 27597 ft | 457 kts | 53° |
| 2026-05-05 15:51 | 53.15681 | 6.16794 | 27915 ft | 460 kts | 53° |
| 2026-05-05 15:51 | 53.17635 | 6.21060 | 28233 ft | 463 kts | 53° |
| 2026-05-05 15:52 | 53.19595 | 6.25349 | 28554 ft | 466 kts | 53° |
| 2026-05-05 15:52 | 53.21567 | 6.29673 | 28854 ft | 468 kts | 53° |
| 2026-05-05 15:52 | 53.23541 | 6.34012 | 29158 ft | 471 kts | 53° |
| 2026-05-05 15:52 | 53.25533 | 6.38396 | 29450 ft | 474 kts | 53° |
| 2026-05-05 15:53 | 53.27505 | 6.42745 | 29732 ft | 476 kts | 53° |
| 2026-05-05 15:53 | 53.29511 | 6.47177 | 30009 ft | 479 kts | 53° |
| 2026-05-05 15:53 | 53.31527 | 6.51636 | 30231 ft | 481 kts | 53° |
| 2026-05-05 15:53 | 53.33552 | 6.56121 | 30449 ft | 484 kts | 53° |
| 2026-05-05 15:54 | 53.35696 | 6.60434 | 30648 ft | 486 kts | 45° |
| 2026-05-05 15:54 | 53.38169 | 6.64331 | 30871 ft | 488 kts | 41° |
| 2026-05-05 15:54 | 53.40699 | 6.68098 | 31092 ft | 490 kts | 40° |
| 2026-05-05 15:54 | 53.43260 | 6.71901 | 31334 ft | 491 kts | 40° |
| 2026-05-05 15:55 | 53.45803 | 6.75739 | 31630 ft | 491 kts | 41° |
| 2026-05-05 15:55 | 53.48328 | 6.79613 | 31944 ft | 491 kts | 41° |
| 2026-05-05 15:55 | 53.50844 | 6.83508 | 32214 ft | 491 kts | 41° |
| 2026-05-05 15:55 | 53.53330 | 6.87373 | 32460 ft | 492 kts | 41° |
| 2026-05-05 15:56 | 53.55852 | 6.91298 | 32713 ft | 493 kts | 41° |
| 2026-05-05 15:56 | 53.58411 | 6.95180 | 32996 ft | 493 kts | 39° |
| 2026-05-05 15:56 | 53.61005 | 6.98867 | 33294 ft | 492 kts | 38° |
| 2026-05-05 15:56 | 53.63649 | 7.02532 | 33585 ft | 491 kts | 38° |
| 2026-05-05 15:57 | 53.66299 | 7.06213 | 33841 ft | 492 kts | 38° |
| 2026-05-05 15:57 | 53.68899 | 7.09870 | 34077 ft | 492 kts | 38° |
| 2026-05-05 15:57 | 53.71520 | 7.13597 | 34346 ft | 490 kts | 38° |
| 2026-05-05 15:57 | 53.74122 | 7.17319 | 34639 ft | 488 kts | 39° |
| 2026-05-05 15:58 | 53.76710 | 7.21039 | 34913 ft | 487 kts | 39° |
| 2026-05-05 15:58 | 53.79255 | 7.24722 | 35155 ft | 486 kts | 39° |
| 2026-05-05 15:58 | 53.81819 | 7.28443 | 35374 ft | 485 kts | 39° |
| 2026-05-05 15:58 | 53.84379 | 7.32160 | 35621 ft | 484 kts | 39° |
| 2026-05-05 15:59 | 53.86907 | 7.35911 | 35893 ft | 482 kts | 42° |
| 2026-05-05 15:59 | 53.89291 | 7.39928 | 36166 ft | 481 kts | 45° |
| 2026-05-05 15:59 | 53.91598 | 7.44048 | 36401 ft | 480 kts | 46° |
| 2026-05-05 15:59 | 53.93868 | 7.48200 | 36597 ft | 480 kts | 46° |
| 2026-05-05 16:00 | 53.96111 | 7.52324 | 36790 ft | 479 kts | 46° |
| 2026-05-05 16:00 | 53.98378 | 7.56477 | 36943 ft | 479 kts | 46° |
| 2026-05-05 16:00 | 54.00661 | 7.60638 | 36933 ft | 482 kts | 46° |
| 2026-05-05 16:01 | 54.05217 | 7.68894 | 36938 ft | 479 kts | 45° |
| 2026-05-05 16:01 | 54.09772 | 7.77141 | 36937 ft | 476 kts | 45° |
| 2026-05-05 16:02 | 54.14295 | 7.85356 | 36940 ft | 473 kts | 45° |
| 2026-05-05 16:02 | 54.18760 | 7.93495 | 36939 ft | 471 kts | 45° |
| 2026-05-05 16:03 | 54.23251 | 8.01713 | 36938 ft | 470 kts | 45° |
| 2026-05-05 16:03 | 54.27693 | 8.09869 | 36938 ft | 471 kts | 45° |
| 2026-05-05 16:04 | 54.32146 | 8.18074 | 36939 ft | 472 kts | 46° |
| 2026-05-05 16:04 | 54.36619 | 8.26345 | 36938 ft | 473 kts | 46° |
| 2026-05-05 16:05 | 54.41089 | 8.34636 | 36946 ft | 475 kts | 46° |
| 2026-05-05 16:05 | 54.45564 | 8.42967 | 36941 ft | 477 kts | 46° |
| 2026-05-05 16:06 | 54.50066 | 8.51378 | 36929 ft | 478 kts | 46° |
| 2026-05-05 16:06 | 54.54577 | 8.59835 | 36923 ft | 479 kts | 46° |
| 2026-05-05 16:07 | 54.59055 | 8.68261 | 36924 ft | 478 kts | 46° |
| 2026-05-05 16:07 | 54.63524 | 8.76698 | 36930 ft | 478 kts | 46° |
| 2026-05-05 16:08 | 54.68002 | 8.85182 | 36928 ft | 476 kts | 46° |
| 2026-05-05 16:08 | 54.72438 | 8.93617 | 36918 ft | 475 kts | 46° |
| 2026-05-05 16:09 | 54.76876 | 9.02085 | 36917 ft | 473 kts | 46° |
| 2026-05-05 16:09 | 54.81288 | 9.10533 | 36932 ft | 472 kts | 46° |
| 2026-05-05 16:10 | 54.85679 | 9.18974 | 36922 ft | 470 kts | 47° |
| 2026-05-05 16:10 | 54.89785 | 9.27772 | 36932 ft | 470 kts | 51° |
| 2026-05-05 16:11 | 54.93730 | 9.36864 | 36932 ft | 470 kts | 52° |
| 2026-05-05 16:12 | 55.01600 | 9.54959 | 36933 ft | 471 kts | 51° |
| 2026-05-05 16:13 | 55.11545 | 9.77743 | 36936 ft | 473 kts | 51° |
| 2026-05-05 16:13 | 55.15513 | 9.86894 | 36940 ft | 474 kts | 51° |
| 2026-05-05 16:14 | 55.23495 | 10.05411 | 36939 ft | 476 kts | 52° |
| 2026-05-05 16:15 | 55.31455 | 10.24017 | 36937 ft | 478 kts | 52° |
| 2026-05-05 16:16 | 55.39400 | 10.42729 | 36941 ft | 478 kts | 52° |
| 2026-05-05 16:17 | 55.45348 | 10.56830 | 36939 ft | 478 kts | 52° |
| 2026-05-05 16:18 | 55.51262 | 10.70933 | 36941 ft | 478 kts | 52° |
| 2026-05-05 16:19 | 55.57182 | 10.85131 | 36944 ft | 477 kts | 52° |
| 2026-05-05 16:19 | 55.63051 | 10.99290 | 36944 ft | 477 kts | 52° |
| 2026-05-05 16:20 | 55.70861 | 11.18255 | 36947 ft | 477 kts | 52° |
| 2026-05-05 16:22 | 55.80588 | 11.42087 | 36952 ft | 478 kts | 52° |
| 2026-05-05 16:23 | 55.88354 | 11.61280 | 36953 ft | 479 kts | 52° |
| 2026-05-05 16:23 | 55.94192 | 11.75810 | 36953 ft | 480 kts | 52° |
| 2026-05-05 16:24 | 55.98050 | 11.85460 | 36947 ft | 480 kts | 52° |
| 2026-05-05 16:25 | 56.03923 | 11.99929 | 36942 ft | 479 kts | 47° |
| 2026-05-05 16:25 | 56.10680 | 12.13101 | 36952 ft | 477 kts | 44° |
| 2026-05-05 16:26 | 56.19748 | 12.30509 | 36949 ft | 478 kts | 45° |
| 2026-05-05 16:27 | 56.24233 | 12.39315 | 36943 ft | 478 kts | 45° |
| 2026-05-05 16:27 | 56.28702 | 12.48140 | 36946 ft | 478 kts | 45° |
| 2026-05-05 16:28 | 56.33157 | 12.56967 | 36940 ft | 478 kts | 45° |
| 2026-05-05 16:28 | 56.37634 | 12.65867 | 36942 ft | 478 kts | 45° |
| 2026-05-05 16:29 | 56.42111 | 12.74798 | 36939 ft | 479 kts | 45° |
| 2026-05-05 16:29 | 56.46549 | 12.83683 | 36936 ft | 479 kts | 45° |
| 2026-05-05 16:30 | 56.51022 | 12.92675 | 36940 ft | 479 kts | 45° |
| 2026-05-05 16:30 | 56.55452 | 13.01614 | 36942 ft | 479 kts | 45° |
| 2026-05-05 16:31 | 56.59891 | 13.10605 | 36939 ft | 479 kts | 45° |
| 2026-05-05 16:31 | 56.64341 | 13.19653 | 36938 ft | 480 kts | 45° |
| 2026-05-05 16:32 | 56.68765 | 13.28681 | 36929 ft | 480 kts | 45° |
| 2026-05-05 16:32 | 56.73200 | 13.37770 | 36928 ft | 480 kts | 45° |
| 2026-05-05 16:33 | 56.77632 | 13.46884 | 36920 ft | 480 kts | 45° |
| 2026-05-05 16:33 | 56.82061 | 13.56029 | 36920 ft | 480 kts | 45° |
| 2026-05-05 16:34 | 56.86461 | 13.65149 | 36914 ft | 480 kts | 45° |
| 2026-05-05 16:34 | 56.90860 | 13.74303 | 36916 ft | 480 kts | 45° |
| 2026-05-05 16:35 | 56.95272 | 13.83518 | 36912 ft | 480 kts | 46° |
| 2026-05-05 16:35 | 56.99647 | 13.92692 | 36904 ft | 480 kts | 46° |
| 2026-05-05 16:36 | 57.04062 | 14.01987 | 36898 ft | 480 kts | 46° |
| 2026-05-05 16:36 | 57.08454 | 14.11270 | 36895 ft | 481 kts | 46° |
| 2026-05-05 16:37 | 57.12802 | 14.20495 | 36892 ft | 481 kts | 46° |
| 2026-05-05 16:37 | 57.17189 | 14.29840 | 36890 ft | 481 kts | 46° |
| 2026-05-05 16:38 | 57.21552 | 14.39171 | 36885 ft | 481 kts | 46° |
| 2026-05-05 16:38 | 57.25925 | 14.48561 | 36891 ft | 481 kts | 46° |
| 2026-05-05 16:39 | 57.30287 | 14.57963 | 36891 ft | 482 kts | 46° |
| 2026-05-05 16:39 | 57.34625 | 14.67351 | 36889 ft | 482 kts | 46° |
| 2026-05-05 16:40 | 57.38985 | 14.76824 | 36887 ft | 482 kts | 46° |
| 2026-05-05 16:40 | 57.43339 | 14.86324 | 36889 ft | 482 kts | 46° |
| 2026-05-05 16:41 | 57.47658 | 14.95785 | 36886 ft | 482 kts | 46° |
| 2026-05-05 16:41 | 57.51998 | 15.05330 | 36887 ft | 483 kts | 46° |
| 2026-05-05 16:42 | 57.56294 | 15.14819 | 36873 ft | 477 kts | 46° |
| 2026-05-05 16:42 | 57.59822 | 15.22640 | 36881 ft | 473 kts | 46° |
| 2026-05-05 16:43 | 57.62639 | 15.28901 | 36719 ft | 474 kts | 46° |
| 2026-05-05 16:43 | 57.64067 | 15.32079 | 36473 ft | 472 kts | 46° |
| 2026-05-05 16:43 | 57.66166 | 15.36765 | 36153 ft | 466 kts | 46° |
| 2026-05-05 16:43 | 57.68236 | 15.41394 | 35768 ft | 462 kts | 46° |
| 2026-05-05 16:44 | 57.70287 | 15.45989 | 35399 ft | 459 kts | 46° |
| 2026-05-05 16:44 | 57.72307 | 15.50524 | 35018 ft | 456 kts | 46° |
| 2026-05-05 16:44 | 57.74333 | 15.55079 | 34648 ft | 453 kts | 46° |
| 2026-05-05 16:44 | 57.76339 | 15.59597 | 34275 ft | 450 kts | 46° |
| 2026-05-05 16:45 | 57.78333 | 15.64096 | 33909 ft | 447 kts | 46° |
| 2026-05-05 16:45 | 57.80319 | 15.68587 | 33477 ft | 445 kts | 46° |
| 2026-05-05 16:45 | 57.82262 | 15.72988 | 33103 ft | 441 kts | 46° |
| 2026-05-05 16:45 | 57.84214 | 15.77420 | 32740 ft | 437 kts | 46° |
| 2026-05-05 16:46 | 57.86139 | 15.81796 | 32391 ft | 433 kts | 46° |
| 2026-05-05 16:46 | 57.88055 | 15.86159 | 32031 ft | 430 kts | 46° |
| 2026-05-05 16:46 | 57.89962 | 15.90488 | 31699 ft | 426 kts | 44° |
| 2026-05-05 16:46 | 57.92033 | 15.94377 | 31387 ft | 415 kts | 33° |
| 2026-05-05 16:47 | 57.94240 | 15.97692 | 31114 ft | 409 kts | 32° |
| 2026-05-05 16:47 | 57.96488 | 16.00958 | 30747 ft | 406 kts | 31° |
| 2026-05-05 16:47 | 57.98730 | 16.04199 | 30435 ft | 406 kts | 31° |
| 2026-05-05 16:47 | 58.00988 | 16.07481 | 30108 ft | 410 kts | 32° |
| 2026-05-05 16:48 | 58.03228 | 16.10769 | 29744 ft | 413 kts | 32° |
| 2026-05-05 16:48 | 58.05497 | 16.14124 | 29324 ft | 418 kts | 32° |
| 2026-05-05 16:48 | 58.07819 | 16.17575 | 28943 ft | 426 kts | 32° |
| 2026-05-05 16:48 | 58.10151 | 16.21059 | 28539 ft | 425 kts | 32° |
| 2026-05-05 16:49 | 58.12466 | 16.24534 | 28182 ft | 422 kts | 32° |
| 2026-05-05 16:49 | 58.14730 | 16.27939 | 27824 ft | 418 kts | 32° |
| 2026-05-05 16:49 | 58.17010 | 16.31368 | 27475 ft | 415 kts | 32° |
| 2026-05-05 16:49 | 58.19266 | 16.34763 | 27131 ft | 412 kts | 32° |
| 2026-05-05 16:50 | 58.21503 | 16.38131 | 26785 ft | 410 kts | 32° |
| 2026-05-05 16:50 | 58.23704 | 16.41452 | 26457 ft | 407 kts | 32° |
| 2026-05-05 16:50 | 58.25913 | 16.44790 | 26120 ft | 405 kts | 32° |
| 2026-05-05 16:50 | 58.28043 | 16.48306 | 25787 ft | 408 kts | 40° |
| 2026-05-05 16:51 | 58.29881 | 16.52460 | 25471 ft | 411 kts | 48° |
| 2026-05-05 16:51 | 58.31598 | 16.56838 | 25147 ft | 412 kts | 50° |
| 2026-05-05 16:51 | 58.33275 | 16.61222 | 24823 ft | 414 kts | 50° |
| 2026-05-05 16:51 | 58.34972 | 16.65680 | 24487 ft | 413 kts | 50° |
| 2026-05-05 16:52 | 58.36657 | 16.70087 | 24152 ft | 411 kts | 50° |
| 2026-05-05 16:52 | 58.38348 | 16.74490 | 23822 ft | 408 kts | 49° |
| 2026-05-05 16:52 | 58.40022 | 16.78831 | 23539 ft | 405 kts | 49° |
| 2026-05-05 16:52 | 58.41699 | 16.83169 | 23115 ft | 405 kts | 49° |
| 2026-05-05 16:53 | 58.43366 | 16.87482 | 22750 ft | 403 kts | 49° |
| 2026-05-05 16:53 | 58.45006 | 16.91728 | 22429 ft | 399 kts | 49° |
| 2026-05-05 16:53 | 58.46647 | 16.95984 | 22094 ft | 397 kts | 49° |
| 2026-05-05 16:53 | 58.48281 | 17.00231 | 21766 ft | 394 kts | 49° |
| 2026-05-05 16:54 | 58.49900 | 17.04443 | 21441 ft | 391 kts | 49° |
| 2026-05-05 16:54 | 58.51498 | 17.08609 | 21117 ft | 389 kts | 49° |
| 2026-05-05 16:54 | 58.53098 | 17.12788 | 20796 ft | 387 kts | 49° |
| 2026-05-05 16:54 | 58.54695 | 17.16967 | 20482 ft | 388 kts | 49° |
| 2026-05-05 16:55 | 58.56272 | 17.21096 | 20170 ft | 388 kts | 49° |
| 2026-05-05 16:55 | 58.57864 | 17.25274 | 19845 ft | 387 kts | 49° |
| 2026-05-05 16:55 | 58.59454 | 17.29458 | 19520 ft | 385 kts | 49° |
| 2026-05-05 16:55 | 58.61025 | 17.33600 | 19197 ft | 383 kts | 49° |
| 2026-05-05 16:56 | 58.62590 | 17.37733 | 18881 ft | 382 kts | 49° |
| 2026-05-05 16:56 | 58.64151 | 17.41859 | 18560 ft | 381 kts | 49° |
| 2026-05-05 16:56 | 58.65687 | 17.45929 | 18251 ft | 379 kts | 49° |
| 2026-05-05 16:56 | 58.67242 | 17.50057 | 17891 ft | 378 kts | 49° |
| 2026-05-05 16:57 | 58.68787 | 17.54161 | 17533 ft | 377 kts | 49° |
| 2026-05-05 16:57 | 58.70298 | 17.58185 | 17203 ft | 375 kts | 49° |
| 2026-05-05 16:57 | 58.71826 | 17.62262 | 16875 ft | 373 kts | 49° |
| 2026-05-05 16:57 | 58.73337 | 17.66300 | 16555 ft | 370 kts | 49° |
| 2026-05-05 16:58 | 58.74837 | 17.70315 | 16243 ft | 368 kts | 49° |
| 2026-05-05 16:58 | 58.76319 | 17.74287 | 15939 ft | 366 kts | 49° |
| 2026-05-05 16:58 | 58.77810 | 17.78289 | 15615 ft | 364 kts | 49° |
| 2026-05-05 16:58 | 58.79281 | 17.82244 | 15312 ft | 362 kts | 49° |
| 2026-05-05 16:59 | 58.80730 | 17.86128 | 15009 ft | 359 kts | 46° |
| 2026-05-05 16:59 | 58.82505 | 17.89384 | 14684 ft | 342 kts | 23° |
| 2026-05-05 16:59 | 58.84563 | 17.91494 | 14488 ft | 327 kts | 12° |
| 2026-05-05 16:59 | 58.86638 | 17.92383 | 14427 ft | 296 kts | 349° |
| 2026-05-05 17:00 | 58.88671 | 17.92242 | 14181 ft | 291 kts | 345° |
| 2026-05-05 17:00 | 58.90695 | 17.91967 | 13803 ft | 291 kts | 344° |
| 2026-05-05 17:00 | 58.92738 | 17.91667 | 13171 ft | 296 kts | 345° |
| 2026-05-05 17:00 | 58.94790 | 17.91374 | 12640 ft | 295 kts | 346° |
| 2026-05-05 17:01 | 58.96805 | 17.91102 | 12193 ft | 292 kts | 347° |
| 2026-05-05 17:01 | 58.98831 | 17.90837 | 11744 ft | 289 kts | 348° |
| 2026-05-05 17:01 | 59.00837 | 17.90579 | 11298 ft | 287 kts | 349° |
| 2026-05-05 17:01 | 59.02823 | 17.90328 | 10961 ft | 282 kts | 349° |
| 2026-05-05 17:02 | 59.04742 | 17.90088 | 10617 ft | 278 kts | 350° |
| 2026-05-05 17:02 | 59.06664 | 17.89847 | 10294 ft | 275 kts | 351° |
| 2026-05-05 17:02 | 59.08574 | 17.89605 | 9968 ft | 275 kts | 351° |
| 2026-05-05 17:02 | 59.10468 | 17.89366 | 9628 ft | 276 kts | 352° |
| 2026-05-05 17:03 | 59.12391 | 17.89123 | 9253 ft | 276 kts | 352° |
| 2026-05-05 17:03 | 59.14314 | 17.88882 | 8929 ft | 275 kts | 352° |
| 2026-05-05 17:03 | 59.16190 | 17.88650 | 8682 ft | 270 kts | 352° |
| 2026-05-05 17:03 | 59.18054 | 17.88416 | 8287 ft | 269 kts | 352° |
| 2026-05-05 17:04 | 59.19928 | 17.88181 | 7941 ft | 269 kts | 353° |
| 2026-05-05 17:04 | 59.21804 | 17.87944 | 7618 ft | 269 kts | 353° |
| 2026-05-05 17:04 | 59.23671 | 17.87709 | 7271 ft | 270 kts | 353° |
| 2026-05-05 17:04 | 59.25522 | 17.87476 | 6966 ft | 269 kts | 353° |
| 2026-05-05 17:05 | 59.27361 | 17.87246 | 6842 ft | 260 kts | 353° |
| 2026-05-05 17:05 | 59.29186 | 17.87016 | 6372 ft | 261 kts | 353° |
| 2026-05-05 17:05 | 59.30951 | 17.86795 | 6248 ft | 246 kts | 353° |
| 2026-05-05 17:05 | 59.32629 | 17.86589 | 5955 ft | 239 kts | 353° |
| 2026-05-05 17:06 | 59.34285 | 17.86392 | 5634 ft | 234 kts | 353° |
| 2026-05-05 17:06 | 59.35860 | 17.86213 | 5524 ft | 220 kts | 353° |
| 2026-05-05 17:06 | 59.37322 | 17.86128 | 5434 ft | 205 kts | 0° |
| 2026-05-05 17:06 | 59.38723 | 17.86450 | 5080 ft | 202 kts | 5° |
| 2026-05-05 17:07 | 59.40080 | 17.86891 | 4791 ft | 196 kts | 6° |
| 2026-05-05 17:07 | 59.41404 | 17.87360 | 4534 ft | 189 kts | 6° |
| 2026-05-05 17:07 | 59.42683 | 17.87822 | 4277 ft | 185 kts | 6° |
| 2026-05-05 17:07 | 59.43954 | 17.88283 | 4009 ft | 186 kts | 6° |
| 2026-05-05 17:08 | 59.45211 | 17.88740 | 3743 ft | 186 kts | 6° |
| 2026-05-05 17:08 | 59.46487 | 17.89204 | 3483 ft | 185 kts | 6° |
| 2026-05-05 17:08 | 59.47749 | 17.89663 | 3239 ft | 183 kts | 6° |
| 2026-05-05 17:08 | 59.49004 | 17.90118 | 2975 ft | 183 kts | 6° |
| 2026-05-05 17:09 | 59.50257 | 17.90574 | 2708 ft | 182 kts | 6° |
| 2026-05-05 17:09 | 59.51486 | 17.91022 | 2466 ft | 182 kts | 7° |
| 2026-05-05 17:09 | 59.52728 | 17.91472 | 2226 ft | 180 kts | 6° |
| 2026-05-05 17:09 | 59.53950 | 17.91918 | 1977 ft | 175 kts | 6° |
| 2026-05-05 17:10 | 59.55122 | 17.92344 | 1738 ft | 166 kts | 6° |
| 2026-05-05 17:10 | 59.56203 | 17.92738 | 1526 ft | 155 kts | 6° |
| 2026-05-05 17:10 | 59.57243 | 17.93114 | 1306 ft | 151 kts | 6° |
| 2026-05-05 17:10 | 59.58285 | 17.93491 | 1089 ft | 152 kts | 5° |
| 2026-05-05 17:11 | 59.59324 | 17.93862 | 868 ft | 149 kts | 6° |
| 2026-05-05 17:11 | 59.60347 | 17.94240 | 662 ft | 150 kts | 7° |
| 2026-05-05 17:11 | 59.61365 | 17.94623 | 456 ft | 149 kts | 7° |
| 2026-05-05 17:11 | 59.62370 | 17.94984 | 242 ft | 144 kts | 7° |
| 2026-05-05 17:12 | 59.63334 | 17.95323 | 132 ft | 133 kts | 9° |
| 2026-05-05 17:12 | 59.64033 | 17.95580 | 120 ft | 72 kts | 10° |
| 2026-05-05 17:12 | 59.64331 | 17.95688 | 117 ft | 28 kts | 7° |
| 2026-05-05 17:12 | 59.64516 | 17.95671 | 112 ft | 26 kts | 347° |
| 2026-05-05 17:13 | 59.64641 | 17.95594 | 111 ft | 14 kts | 341° |
| 2026-05-05 17:13 | 59.64682 | 17.95558 | 110 ft | 6 kts | 319° |
| 2026-05-05 17:13 | 59.64696 | 17.95481 | 110 ft | 6 kts | 265° |
| 2026-05-05 17:13 | 59.64673 | 17.95414 | 110 ft | 6 kts | 211° |
| 2026-05-05 17:14 | 59.64635 | 17.95379 | 111 ft | 6 kts | 205° |
| 2026-05-05 17:14 | 59.64599 | 17.95337 | 111 ft | 6 kts | 220° |
| 2026-05-05 17:14 | 59.64558 | 17.95254 | 113 ft | 12 kts | 232° |
| 2026-05-05 17:14 | 59.64503 | 17.95084 | 114 ft | 17 kts | 238° |
| 2026-05-05 17:15 | 59.64443 | 17.94896 | 114 ft | 16 kts | 237° |
| 2026-05-05 17:15 | 59.64385 | 17.94712 | 114 ft | 15 kts | 238° |
| 2026-05-05 17:15 | 59.64329 | 17.94536 | 113 ft | 15 kts | 237° |
| 2026-05-05 17:15 | 59.64275 | 17.94367 | 116 ft | 14 kts | 239° |
| 2026-05-05 17:16 | 59.64223 | 17.94206 | 116 ft | 14 kts | 237° |
| 2026-05-05 17:16 | 59.64175 | 17.94053 | 118 ft | 13 kts | 238° |
| 2026-05-05 17:16 | 59.64125 | 17.93897 | 115 ft | 15 kts | 237° |
| 2026-05-05 17:16 | 59.64061 | 17.93697 | 116 ft | 18 kts | 237° |
| 2026-05-05 17:17 | 59.63996 | 17.93487 | 116 ft | 18 kts | 245° |
| 2026-05-05 17:17 | 59.63999 | 17.93255 | 115 ft | 17 kts | 293° |
| 2026-05-05 17:17 | 59.64054 | 17.93053 | 113 ft | 16 kts | 298° |
| 2026-05-05 17:17 | 59.64106 | 17.92859 | 113 ft | 16 kts | 298° |
| 2026-05-05 17:18 | 59.64154 | 17.92672 | 112 ft | 15 kts | 296° |
| 2026-05-05 17:18 | 59.64200 | 17.92500 | 111 ft | 11 kts | 302° |
| 2026-05-05 17:18 | 59.64257 | 17.92485 | 113 ft | 9 kts | 3° |
| 2026-05-05 17:18 | 59.64286 | 17.92464 | 112 ft | 3 kts | 334° |
| 2026-05-05 17:19 | 59.64306 | 17.92457 | 113 ft | 3 kts | 5° |
| 2026-05-05 17:19 | 59.64333 | 17.92481 | 113 ft | 6 kts | 28° |
| 2026-05-05 17:19 | 59.64368 | 17.92532 | 110 ft | 6 kts | 50° |
| 2026-05-05 17:19 | 59.64396 | 17.92599 | 113 ft | 6 kts | 50° |
| 2026-05-05 17:20 | 59.64423 | 17.92664 | 114 ft | 4 kts | 53° |
| 2026-05-05 17:20 | 59.64431 | 17.92685 | 114 ft | 0 kts | 53° |